This is the latest recevied weather packets stored in our database for station/object PA3FNT-10. If no packets are shown the sender has not sent any weather packets the latest 1 day(s).
| Time | Temp. | Humidity | Pressure | Rain* | Wind** | Luminosity | Snow |
|---|---|---|---|---|---|---|---|
| 1778055378 | 13.89° C | 60% | 1009.3 hPa | - | - | - | - |
| 1778053578 | 13.33° C | 62% | 1009.3 hPa | - | - | - | - |
| 1778051777 | 14.44° C | 62% | 1009 hPa | - | - | - | - |
| 1778050920 | 15° C | 60% | 1009.2 hPa | - | - | - | - |
| 1778050876 | 15° C | 60% | 1009.2 hPa | - | - | - | - |
| 1778049976 | 12.78° C | 63% | 1009.1 hPa | - | - | - | - |
| 1778049076 | 11.67° C | 64% | 1009.1 hPa | - | - | - | - |
| 1778048248 | 10° C | 67% | 1009 hPa | - | - | - | - |
| 1778048176 | 10° C | 67% | 1009 hPa | - | - | - | - |
| 1778047276 | 9.44° C | 67% | 1008.9 hPa | - | - | - | - |
| 1778046375 | 8.89° C | 68% | 1008.7 hPa | - | - | - | - |
| 1778045475 | 9.44° C | 67% | 1008.9 hPa | - | - | - | - |
| 1778044575 | 9.44° C | 67% | 1008.9 hPa | - | - | - | - |
| 1778043675 | 9.44° C | 67% | 1008.8 hPa | - | - | - | - |
| 1778042893 | 9.44° C | 67% | 1008.8 hPa | - | - | - | - |
| 1778042775 | 9.44° C | 67% | 1008.8 hPa | - | - | - | - |
| 1778039210 | 8.89° C | 66% | 1008.8 hPa | - | - | - | - |
| 1778038272 | 8.89° C | 65% | 1009 hPa | - | - | - | - |
| 1778036470 | 8.89° C | 65% | 1009.2 hPa | - | - | - | - |
| 1778032869 | 8.89° C | 65% | 1009.5 hPa | - | - | - | - |
| 1778031966 | 8.33° C | 64% | 1008.2 hPa | - | - | - | - |
| 1778028362 | 9.44° C | 63% | 1010 hPa | - | - | - | - |
| 1778027462 | 9.44° C | 62% | 1010 hPa | - | - | - | - |
| 1778020314 | 9.44° C | 61% | 1010.7 hPa | - | - | - | - |
| 1778020259 | 9.44° C | 61% | 1010.7 hPa | - | - | - | - |
* Rain since midnight (hover to see other rain measurements)
** Current wind speed in m/s (hover to see current wind gust speed)